sensor_id;sensor_type;location;lat;lon;timestamp;temperature;humidity
7784;DHT22;19359;51.402;6.778;2022-12-18T00:00:39;-7.70;99.90
7784;DHT22;19359;51.402;6.778;2022-12-18T00:03:06;-7.70;99.90
7784;DHT22;19359;51.402;6.778;2022-12-18T00:05:33;-7.70;99.90
7784;DHT22;19359;51.402;6.778;2022-12-18T00:08:00;-7.70;99.90
7784;DHT22;19359;51.402;6.778;2022-12-18T00:10:28;-7.60;99.90
7784;DHT22;19359;51.402;6.778;2022-12-18T00:12:55;-7.60;99.90
7784;DHT22;19359;51.402;6.778;2022-12-18T00:15:22;-7.60;99.90
7784;DHT22;19359;51.402;6.778;2022-12-18T00:17:49;-7.60;99.90
7784;DHT22;19359;51.402;6.778;2022-12-18T00:20:15;-7.70;99.90
7784;DHT22;19359;51.402;6.778;2022-12-18T00:22:47;-7.50;99.90
7784;DHT22;19359;51.402;6.778;2022-12-18T00:25:13;-7.60;99.90
7784;DHT22;19359;51.402;6.778;2022-12-18T00:27:41;-7.50;99.90
7784;DHT22;19359;51.402;6.778;2022-12-18T00:30:09;-7.40;99.90
7784;DHT22;19359;51.402;6.778;2022-12-18T00:32:36;-7.20;99.90
7784;DHT22;19359;51.402;6.778;2022-12-18T00:35:04;-7.30;99.90
7784;DHT22;19359;51.402;6.778;2022-12-18T00:37:31;-7.20;99.90
7784;DHT22;19359;51.402;6.778;2022-12-18T00:39:59;-7.20;99.90
7784;DHT22;19359;51.402;6.778;2022-12-18T00:42:26;-7.20;99.90
7784;DHT22;19359;51.402;6.778;2022-12-18T00:45:12;-7.20;99.90
7784;DHT22;19359;51.402;6.778;2022-12-18T00:47:39;-7.20;99.90
7784;DHT22;19359;51.402;6.778;2022-12-18T00:50:07;-7.10;99.90
7784;DHT22;19359;51.402;6.778;2022-12-18T00:52:34;-6.90;99.90
7784;DHT22;19359;51.402;6.778;2022-12-18T00:55:01;-7.00;99.90
7784;DHT22;19359;51.402;6.778;2022-12-18T00:57:27;-7.00;99.90
7784;DHT22;19359;51.402;6.778;2022-12-18T00:59:54;-6.90;99.90
7784;DHT22;19359;51.402;6.778;2022-12-18T01:02:22;-6.90;99.90
7784;DHT22;19359;51.402;6.778;2022-12-18T01:04:49;-6.80;99.90
7784;DHT22;19359;51.402;6.778;2022-12-18T01:07:16;-6.90;99.90
7784;DHT22;19359;51.402;6.778;2022-12-18T01:09:42;-6.90;99.90
7784;DHT22;19359;51.402;6.778;2022-12-18T01:12:09;-7.00;99.90
7784;DHT22;19359;51.402;6.778;2022-12-18T01:14:36;-7.00;99.90
7784;DHT22;19359;51.402;6.778;2022-12-18T01:17:03;-7.50;99.90
7784;DHT22;19359;51.402;6.778;2022-12-18T01:19:31;-7.00;99.90
7784;DHT22;19359;51.402;6.778;2022-12-18T01:21:58;-7.10;99.90
7784;DHT22;19359;51.402;6.778;2022-12-18T01:24:25;-7.10;99.90
7784;DHT22;19359;51.402;6.778;2022-12-18T01:26:52;-7.00;99.90
7784;DHT22;19359;51.402;6.778;2022-12-18T01:29:19;-7.10;99.90
7784;DHT22;19359;51.402;6.778;2022-12-18T01:31:45;-7.00;99.90
7784;DHT22;19359;51.402;6.778;2022-12-18T01:34:13;-6.90;99.90
7784;DHT22;19359;51.402;6.778;2022-12-18T01:36:41;-7.00;99.90
7784;DHT22;19359;51.402;6.778;2022-12-18T01:39:10;-7.00;99.90
7784;DHT22;19359;51.402;6.778;2022-12-18T01:41:38;-7.00;99.90
7784;DHT22;19359;51.402;6.778;2022-12-18T01:47:38;-7.10;99.90
7784;DHT22;19359;51.402;6.778;2022-12-18T01:50:09;-7.10;99.90
7784;DHT22;19359;51.402;6.778;2022-12-18T01:52:38;-7.10;99.90
7784;DHT22;19359;51.402;6.778;2022-12-18T01:55:08;-7.10;99.90
7784;DHT22;19359;51.402;6.778;2022-12-18T01:57:35;-7.00;99.90
7784;DHT22;19359;51.402;6.778;2022-12-18T02:00:06;-7.20;99.90
7784;DHT22;19359;51.402;6.778;2022-12-18T02:02:34;-7.20;99.90
7784;DHT22;19359;51.402;6.778;2022-12-18T02:05:02;-7.10;99.90
7784;DHT22;19359;51.402;6.778;2022-12-18T02:11:00;-7.00;99.90
7784;DHT22;19359;51.402;6.778;2022-12-18T02:13:36;-7.00;99.90
7784;DHT22;19359;51.402;6.778;2022-12-18T02:18:40;-7.00;99.90
7784;DHT22;19359;51.402;6.778;2022-12-18T02:21:15;-7.40;99.90
7784;DHT22;19359;51.402;6.778;2022-12-18T02:23:52;-7.10;99.90
7784;DHT22;19359;51.402;6.778;2022-12-18T02:26:27;-7.10;99.90
7784;DHT22;19359;51.402;6.778;2022-12-18T02:28:57;-7.10;99.90
7784;DHT22;19359;51.402;6.778;2022-12-18T02:31:28;-7.00;99.90
7784;DHT22;19359;51.402;6.778;2022-12-18T02:33:58;-7.10;99.90
7784;DHT22;19359;51.402;6.778;2022-12-18T02:36:28;-7.00;99.90
7784;DHT22;19359;51.402;6.778;2022-12-18T02:38:56;-7.10;99.90
7784;DHT22;19359;51.402;6.778;2022-12-18T02:41:24;-7.00;99.90
7784;DHT22;19359;51.402;6.778;2022-12-18T02:43:56;-6.70;99.90
7784;DHT22;19359;51.402;6.778;2022-12-18T02:46:33;-6.60;99.90
7784;DHT22;19359;51.402;6.778;2022-12-18T02:49:16;-6.30;99.90
7784;DHT22;19359;51.402;6.778;2022-12-18T02:51:52;-5.90;99.90
7784;DHT22;19359;51.402;6.778;2022-12-18T02:54:37;-5.90;99.90
7784;DHT22;19359;51.402;6.778;2022-12-18T02:57:13;-5.60;99.90
7784;DHT22;19359;51.402;6.778;2022-12-18T02:59:47;-5.50;99.90
7784;DHT22;19359;51.402;6.778;2022-12-18T03:02:20;-5.50;99.90
7784;DHT22;19359;51.402;6.778;2022-12-18T03:04:51;-5.50;99.90
7784;DHT22;19359;51.402;6.778;2022-12-18T03:07:23;-5.50;99.90
7784;DHT22;19359;51.402;6.778;2022-12-18T03:09:53;-5.00;99.90
7784;DHT22;19359;51.402;6.778;2022-12-18T03:12:26;-5.10;99.90
7784;DHT22;19359;51.402;6.778;2022-12-18T03:15:00;-5.40;99.90
7784;DHT22;19359;51.402;6.778;2022-12-18T03:17:31;-5.50;99.90
7784;DHT22;19359;51.402;6.778;2022-12-18T03:20:03;-5.50;99.90
7784;DHT22;19359;51.402;6.778;2022-12-18T03:22:33;-5.10;99.90
7784;DHT22;19359;51.402;6.778;2022-12-18T03:25:03;-5.00;99.90
7784;DHT22;19359;51.402;6.778;2022-12-18T03:27:33;-5.10;99.90
7784;DHT22;19359;51.402;6.778;2022-12-18T03:30:04;-5.20;99.90
7784;DHT22;19359;51.402;6.778;2022-12-18T03:32:37;-5.40;99.90
7784;DHT22;19359;51.402;6.778;2022-12-18T03:35:05;-5.30;99.90
7784;DHT22;19359;51.402;6.778;2022-12-18T03:37:34;-5.20;99.90
7784;DHT22;19359;51.402;6.778;2022-12-18T03:40:02;-5.20;99.90
7784;DHT22;19359;51.402;6.778;2022-12-18T03:42:32;-5.00;99.90
7784;DHT22;19359;51.402;6.778;2022-12-18T03:45:09;-5.00;99.90
7784;DHT22;19359;51.402;6.778;2022-12-18T03:47:41;-5.00;99.90
7784;DHT22;19359;51.402;6.778;2022-12-18T03:50:16;-5.10;99.90
7784;DHT22;19359;51.402;6.778;2022-12-18T03:52:49;-5.10;99.90
7784;DHT22;19359;51.402;6.778;2022-12-18T03:55:19;-5.00;99.90
7784;DHT22;19359;51.402;6.778;2022-12-18T03:57:49;-4.80;99.90
7784;DHT22;19359;51.402;6.778;2022-12-18T04:00:18;-4.00;99.90
7784;DHT22;19359;51.402;6.778;2022-12-18T04:02:48;-4.80;99.90
7784;DHT22;19359;51.402;6.778;2022-12-18T04:05:17;-4.90;99.90
7784;DHT22;19359;51.402;6.778;2022-12-18T04:07:45;-5.10;99.90
7784;DHT22;19359;51.402;6.778;2022-12-18T04:10:13;-5.00;99.90
7784;DHT22;19359;51.402;6.778;2022-12-18T04:12:41;-5.10;99.90
7784;DHT22;19359;51.402;6.778;2022-12-18T04:15:10;-5.30;99.90
7784;DHT22;19359;51.402;6.778;2022-12-18T04:17:38;-5.30;99.90
7784;DHT22;19359;51.402;6.778;2022-12-18T04:20:06;-5.30;99.90
7784;DHT22;19359;51.402;6.778;2022-12-18T04:22:32;-5.40;99.90
7784;DHT22;19359;51.402;6.778;2022-12-18T04:24:59;-5.60;99.90
7784;DHT22;19359;51.402;6.778;2022-12-18T04:27:26;-5.70;99.90
7784;DHT22;19359;51.402;6.778;2022-12-18T04:29:53;-5.80;99.90
7784;DHT22;19359;51.402;6.778;2022-12-18T04:32:21;-5.80;99.90
7784;DHT22;19359;51.402;6.778;2022-12-18T04:34:48;-6.00;99.90
7784;DHT22;19359;51.402;6.778;2022-12-18T04:37:14;-6.10;99.90
7784;DHT22;19359;51.402;6.778;2022-12-18T04:39:41;-6.10;99.90
7784;DHT22;19359;51.402;6.778;2022-12-18T04:42:08;-6.10;99.90
7784;DHT22;19359;51.402;6.778;2022-12-18T04:44:34;-6.10;99.90
7784;DHT22;19359;51.402;6.778;2022-12-18T04:47:02;-6.40;99.90
7784;DHT22;19359;51.402;6.778;2022-12-18T04:49:30;-6.30;99.90
7784;DHT22;19359;51.402;6.778;2022-12-18T04:51:57;-6.30;99.90
7784;DHT22;19359;51.402;6.778;2022-12-18T04:54:24;-6.40;99.90
7784;DHT22;19359;51.402;6.778;2022-12-18T04:56:50;-6.60;99.90
7784;DHT22;19359;51.402;6.778;2022-12-18T04:59:17;-5.40;99.90
7784;DHT22;19359;51.402;6.778;2022-12-18T05:01:44;-6.60;99.90
7784;DHT22;19359;51.402;6.778;2022-12-18T05:04:11;-6.60;99.90
7784;DHT22;19359;51.402;6.778;2022-12-18T05:06:39;-6.70;99.90
7784;DHT22;19359;51.402;6.778;2022-12-18T05:09:06;-6.80;99.90
7784;DHT22;19359;51.402;6.778;2022-12-18T05:11:33;-6.80;99.90
7784;DHT22;19359;51.402;6.778;2022-12-18T05:14:03;-6.30;99.90
7784;DHT22;19359;51.402;6.778;2022-12-18T05:16:30;-6.90;99.90
7784;DHT22;19359;51.402;6.778;2022-12-18T05:18:57;-7.30;99.90
7784;DHT22;19359;51.402;6.778;2022-12-18T05:21:23;-6.40;99.90
7784;DHT22;19359;51.402;6.778;2022-12-18T05:23:51;-7.20;99.90
7784;DHT22;19359;51.402;6.778;2022-12-18T05:26:18;-7.00;99.90
7784;DHT22;19359;51.402;6.778;2022-12-18T05:28:45;-7.10;99.90
7784;DHT22;19359;51.402;6.778;2022-12-18T05:31:12;-7.10;99.90
7784;DHT22;19359;51.402;6.778;2022-12-18T05:33:39;-7.20;99.90
7784;DHT22;19359;51.402;6.778;2022-12-18T05:36:07;-7.30;99.90
7784;DHT22;19359;51.402;6.778;2022-12-18T05:38:35;-7.20;99.90
7784;DHT22;19359;51.402;6.778;2022-12-18T05:41:04;-7.20;99.90
7784;DHT22;19359;51.402;6.778;2022-12-18T05:43:33;-6.40;99.90
7784;DHT22;19359;51.402;6.778;2022-12-18T05:46:04;-7.30;99.90
7784;DHT22;19359;51.402;6.778;2022-12-18T05:48:31;-7.20;99.90
7784;DHT22;19359;51.402;6.778;2022-12-18T05:51:04;-7.30;99.90
7784;DHT22;19359;51.402;6.778;2022-12-18T05:53:30;-7.20;99.90
7784;DHT22;19359;51.402;6.778;2022-12-18T05:56:00;-7.30;99.90
7784;DHT22;19359;51.402;6.778;2022-12-18T05:58:29;-7.40;99.90
7784;DHT22;19359;51.402;6.778;2022-12-18T06:00:56;-7.40;99.90
7784;DHT22;19359;51.402;6.778;2022-12-18T06:03:23;-7.40;99.90
7784;DHT22;19359;51.402;6.778;2022-12-18T06:05:50;-7.40;99.90
7784;DHT22;19359;51.402;6.778;2022-12-18T06:08:16;-7.50;99.90
7784;DHT22;19359;51.402;6.778;2022-12-18T06:10:50;-7.40;99.90
7784;DHT22;19359;51.402;6.778;2022-12-18T06:13:17;-7.50;99.90
7784;DHT22;19359;51.402;6.778;2022-12-18T06:15:46;-7.50;99.90
7784;DHT22;19359;51.402;6.778;2022-12-18T06:18:13;-6.70;99.90
7784;DHT22;19359;51.402;6.778;2022-12-18T06:20:39;-7.50;99.90
7784;DHT22;19359;51.402;6.778;2022-12-18T06:23:07;-7.50;99.90
7784;DHT22;19359;51.402;6.778;2022-12-18T06:25:37;-7.50;99.90
7784;DHT22;19359;51.402;6.778;2022-12-18T06:28:04;-7.60;99.90
7784;DHT22;19359;51.402;6.778;2022-12-18T06:30:31;-7.60;99.90
7784;DHT22;19359;51.402;6.778;2022-12-18T06:32:59;-6.80;99.90
7784;DHT22;19359;51.402;6.778;2022-12-18T06:35:25;-7.60;99.90
7784;DHT22;19359;51.402;6.778;2022-12-18T06:37:52;-7.70;99.90
7784;DHT22;19359;51.402;6.778;2022-12-18T06:40:19;-7.60;99.90
7784;DHT22;19359;51.402;6.778;2022-12-18T06:42:46;-7.90;99.90
7784;DHT22;19359;51.402;6.778;2022-12-18T06:45:16;-7.60;99.90
7784;DHT22;19359;51.402;6.778;2022-12-18T06:47:42;-7.50;99.90
7784;DHT22;19359;51.402;6.778;2022-12-18T06:50:11;-7.60;99.90
7784;DHT22;19359;51.402;6.778;2022-12-18T06:52:38;-7.60;99.90
7784;DHT22;19359;51.402;6.778;2022-12-18T06:55:06;-7.50;99.90
7784;DHT22;19359;51.402;6.778;2022-12-18T06:57:34;-7.50;99.90
7784;DHT22;19359;51.402;6.778;2022-12-18T07:00:01;-7.70;99.90
7784;DHT22;19359;51.402;6.778;2022-12-18T07:02:28;-7.70;99.90
7784;DHT22;19359;51.402;6.778;2022-12-18T07:04:54;-7.70;99.90
7784;DHT22;19359;51.402;6.778;2022-12-18T07:07:23;-7.80;99.90
7784;DHT22;19359;51.402;6.778;2022-12-18T07:09:50;-9.30;99.90
7784;DHT22;19359;51.402;6.778;2022-12-18T07:12:17;-7.80;99.90
7784;DHT22;19359;51.402;6.778;2022-12-18T07:14:44;-7.80;99.90
7784;DHT22;19359;51.402;6.778;2022-12-18T07:17:10;-7.80;99.90
7784;DHT22;19359;51.402;6.778;2022-12-18T07:19:37;-7.80;99.90
7784;DHT22;19359;51.402;6.778;2022-12-18T07:22:04;-7.90;99.90
7784;DHT22;19359;51.402;6.778;2022-12-18T07:24:33;-7.90;99.90
7784;DHT22;19359;51.402;6.778;2022-12-18T07:27:00;-7.80;99.90
7784;DHT22;19359;51.402;6.778;2022-12-18T07:29:27;-7.70;99.90
7784;DHT22;19359;51.402;6.778;2022-12-18T07:31:54;-7.70;99.90
7784;DHT22;19359;51.402;6.778;2022-12-18T07:34:20;-7.70;99.90
7784;DHT22;19359;51.402;6.778;2022-12-18T07:36:47;-7.80;99.90
7784;DHT22;19359;51.402;6.778;2022-12-18T07:39:14;-7.80;99.90
7784;DHT22;19359;51.402;6.778;2022-12-18T07:41:42;-7.80;99.90
7784;DHT22;19359;51.402;6.778;2022-12-18T07:44:11;-7.80;99.90
7784;DHT22;19359;51.402;6.778;2022-12-18T07:46:38;-7.90;99.90
7784;DHT22;19359;51.402;6.778;2022-12-18T07:49:05;-7.80;99.90
7784;DHT22;19359;51.402;6.778;2022-12-18T07:51:32;-7.80;99.90
7784;DHT22;19359;51.402;6.778;2022-12-18T07:53:58;-7.80;99.90
7784;DHT22;19359;51.402;6.778;2022-12-18T07:56:25;-7.80;99.90
7784;DHT22;19359;51.402;6.778;2022-12-18T07:58:53;-7.80;99.90
7784;DHT22;19359;51.402;6.778;2022-12-18T08:03:47;-7.70;99.90
7784;DHT22;19359;51.402;6.778;2022-12-18T08:06:14;-7.60;99.90
7784;DHT22;19359;51.402;6.778;2022-12-18T08:08:40;-7.20;99.90
7784;DHT22;19359;51.402;6.778;2022-12-18T08:11:07;-6.70;99.90
7784;DHT22;19359;51.402;6.778;2022-12-18T08:13:34;-6.70;99.90
7784;DHT22;19359;51.402;6.778;2022-12-18T08:16:04;-6.60;99.90
7784;DHT22;19359;51.402;6.778;2022-12-18T08:18:32;-6.20;99.90
7784;DHT22;19359;51.402;6.778;2022-12-18T08:21:08;-6.00;99.90
7784;DHT22;19359;51.402;6.778;2022-12-18T08:23:35;-5.80;99.90
7784;DHT22;19359;51.402;6.778;2022-12-18T08:26:02;-4.90;99.90
7784;DHT22;19359;51.402;6.778;2022-12-18T08:28:29;-5.30;99.90
7784;DHT22;19359;51.402;6.778;2022-12-18T08:30:56;-4.90;99.90
7784;DHT22;19359;51.402;6.778;2022-12-18T08:33:24;-4.70;99.90
7784;DHT22;19359;51.402;6.778;2022-12-18T08:35:51;-4.70;99.90
7784;DHT22;19359;51.402;6.778;2022-12-18T08:38:18;-4.70;99.90
7784;DHT22;19359;51.402;6.778;2022-12-18T08:40:45;-4.60;99.90
7784;DHT22;19359;51.402;6.778;2022-12-18T08:43:11;-4.40;99.90
7784;DHT22;19359;51.402;6.778;2022-12-18T08:45:56;-4.40;99.90
7784;DHT22;19359;51.402;6.778;2022-12-18T08:48:24;-4.10;99.90
7784;DHT22;19359;51.402;6.778;2022-12-18T08:50:55;-3.90;99.90
7784;DHT22;19359;51.402;6.778;2022-12-18T08:53:21;-3.60;99.90
7784;DHT22;19359;51.402;6.778;2022-12-18T08:55:48;-3.40;99.90
7784;DHT22;19359;51.402;6.778;2022-12-18T08:58:15;-3.40;99.90
7784;DHT22;19359;51.402;6.778;2022-12-18T09:00:41;-3.10;99.90
7784;DHT22;19359;51.402;6.778;2022-12-18T09:03:11;-3.00;99.90
7784;DHT22;19359;51.402;6.778;2022-12-18T09:05:39;-3.00;99.90
7784;DHT22;19359;51.402;6.778;2022-12-18T09:08:06;-3.30;1.00
7784;DHT22;19359;51.402;6.778;2022-12-18T09:10:33;-2.70;99.90
7784;DHT22;19359;51.402;6.778;2022-12-18T09:13:00;-2.60;1.00
7784;DHT22;19359;51.402;6.778;2022-12-18T09:15:26;-2.70;77.20
7784;DHT22;19359;51.402;6.778;2022-12-18T09:17:53;-2.80;59.80
7784;DHT22;19359;51.402;6.778;2022-12-18T09:20:20;-2.70;1.00
7784;DHT22;19359;51.402;6.778;2022-12-18T09:22:48;-2.60;1.00
7784;DHT22;19359;51.402;6.778;2022-12-18T09:25:15;-2.50;99.90
7784;DHT22;19359;51.402;6.778;2022-12-18T09:27:41;-2.30;99.90
7784;DHT22;19359;51.402;6.778;2022-12-18T09:30:09;-2.30;99.90
7784;DHT22;19359;51.402;6.778;2022-12-18T09:32:36;-2.20;15.40
7784;DHT22;19359;51.402;6.778;2022-12-18T09:35:03;-1.90;59.00
7784;DHT22;19359;51.402;6.778;2022-12-18T09:37:30;-1.80;1.00
7784;DHT22;19359;51.402;6.778;2022-12-18T09:39:58;-1.70;1.00
7784;DHT22;19359;51.402;6.778;2022-12-18T09:42:24;-1.70;1.00
7784;DHT22;19359;51.402;6.778;2022-12-18T09:44:53;-1.00;1.00
7784;DHT22;19359;51.402;6.778;2022-12-18T09:47:23;-1.50;1.00
7784;DHT22;19359;51.402;6.778;2022-12-18T09:49:53;-1.50;1.00
7784;DHT22;19359;51.402;6.778;2022-12-18T09:52:25;-1.60;1.00
7784;DHT22;19359;51.402;6.778;2022-12-18T09:54:56;-1.30;1.00
7784;DHT22;19359;51.402;6.778;2022-12-18T09:57:26;-1.20;1.00
7784;DHT22;19359;51.402;6.778;2022-12-18T09:59:56;-1.20;1.00
7784;DHT22;19359;51.402;6.778;2022-12-18T10:02:26;-1.00;1.00
7784;DHT22;19359;51.402;6.778;2022-12-18T10:05:02;-1.00;1.00
7784;DHT22;19359;51.402;6.778;2022-12-18T10:07:38;-0.80;1.00
7784;DHT22;19359;51.402;6.778;2022-12-18T10:10:16;-0.70;1.00
7784;DHT22;19359;51.402;6.778;2022-12-18T10:12:54;-0.80;1.00
7784;DHT22;19359;51.402;6.778;2022-12-18T10:15:26;-0.70;1.00
7784;DHT22;19359;51.402;6.778;2022-12-18T10:17:58;-0.60;1.00
7784;DHT22;19359;51.402;6.778;2022-12-18T10:20:33;-0.40;1.00
7784;DHT22;19359;51.402;6.778;2022-12-18T10:23:04;-0.40;1.00
7784;DHT22;19359;51.402;6.778;2022-12-18T10:25:38;-0.20;1.00
7784;DHT22;19359;51.402;6.778;2022-12-18T10:28:12;-0.30;1.00
7784;DHT22;19359;51.402;6.778;2022-12-18T10:30:40;-0.10;1.00
7784;DHT22;19359;51.402;6.778;2022-12-18T10:33:10;-0.10;1.00
7784;DHT22;19359;51.402;6.778;2022-12-18T10:35:41;0.00;1.00
7784;DHT22;19359;51.402;6.778;2022-12-18T10:38:21;0.00;1.00
7784;DHT22;19359;51.402;6.778;2022-12-18T10:40:50;0.10;1.00
7784;DHT22;19359;51.402;6.778;2022-12-18T10:43:23;0.20;1.00
7784;DHT22;19359;51.402;6.778;2022-12-18T10:46:03;0.20;1.00
7784;DHT22;19359;51.402;6.778;2022-12-18T10:48:33;0.30;1.00
7784;DHT22;19359;51.402;6.778;2022-12-18T10:51:00;0.30;1.00
7784;DHT22;19359;51.402;6.778;2022-12-18T10:53:30;0.40;1.00
7784;DHT22;19359;51.402;6.778;2022-12-18T10:55:58;0.50;1.00
7784;DHT22;19359;51.402;6.778;2022-12-18T10:58:30;0.60;1.00
7784;DHT22;19359;51.402;6.778;2022-12-18T11:01:07;0.50;1.00
7784;DHT22;19359;51.402;6.778;2022-12-18T11:03:35;0.60;1.00
7784;DHT22;19359;51.402;6.778;2022-12-18T11:06:05;0.80;1.00
7784;DHT22;19359;51.402;6.778;2022-12-18T11:08:33;0.70;1.00
7784;DHT22;19359;51.402;6.778;2022-12-18T11:10:59;0.80;1.00
7784;DHT22;19359;51.402;6.778;2022-12-18T11:13:29;0.80;1.00
7784;DHT22;19359;51.402;6.778;2022-12-18T11:15:57;0.80;1.00
7784;DHT22;19359;51.402;6.778;2022-12-18T11:18:27;1.30;1.00
7784;DHT22;19359;51.402;6.778;2022-12-18T11:20:56;0.90;1.00
7784;DHT22;19359;51.402;6.778;2022-12-18T11:23:24;1.00;1.00
7784;DHT22;19359;51.402;6.778;2022-12-18T11:25:54;1.00;1.00
7784;DHT22;19359;51.402;6.778;2022-12-18T11:28:35;1.00;1.00
7784;DHT22;19359;51.402;6.778;2022-12-18T11:31:22;1.00;1.00
7784;DHT22;19359;51.402;6.778;2022-12-18T11:33:54;1.10;1.00
7784;DHT22;19359;51.402;6.778;2022-12-18T11:36:23;1.20;1.00
7784;DHT22;19359;51.402;6.778;2022-12-18T11:38:52;1.10;1.00
7784;DHT22;19359;51.402;6.778;2022-12-18T11:41:24;0.50;1.00
7784;DHT22;19359;51.402;6.778;2022-12-18T11:44:18;1.20;1.00
7784;DHT22;19359;51.402;6.778;2022-12-18T11:46:49;1.30;1.00
7784;DHT22;19359;51.402;6.778;2022-12-18T11:49:21;1.20;1.00
7784;DHT22;19359;51.402;6.778;2022-12-18T11:51:53;1.20;1.00
7784;DHT22;19359;51.402;6.778;2022-12-18T11:54:21;1.20;1.00
7784;DHT22;19359;51.402;6.778;2022-12-18T11:56:51;1.20;1.00
7784;DHT22;19359;51.402;6.778;2022-12-18T11:59:30;1.20;1.00
7784;DHT22;19359;51.402;6.778;2022-12-18T12:02:04;1.30;1.00
7784;DHT22;19359;51.402;6.778;2022-12-18T12:04:50;2.00;1.00
7784;DHT22;19359;51.402;6.778;2022-12-18T12:07:32;1.30;1.00
7784;DHT22;19359;51.402;6.778;2022-12-18T12:10:09;1.20;1.00
7784;DHT22;19359;51.402;6.778;2022-12-18T12:12:51;1.30;1.00
7784;DHT22;19359;51.402;6.778;2022-12-18T12:15:29;1.30;1.00
7784;DHT22;19359;51.402;6.778;2022-12-18T12:18:08;1.00;1.00
7784;DHT22;19359;51.402;6.778;2022-12-18T12:20:44;1.30;1.00
7784;DHT22;19359;51.402;6.778;2022-12-18T12:23:22;1.30;1.00
7784;DHT22;19359;51.402;6.778;2022-12-18T12:25:53;1.30;1.00
7784;DHT22;19359;51.402;6.778;2022-12-18T12:28:44;1.20;1.00
7784;DHT22;19359;51.402;6.778;2022-12-18T12:31:21;1.30;1.00
7784;DHT22;19359;51.402;6.778;2022-12-18T12:33:56;1.20;1.00
7784;DHT22;19359;51.402;6.778;2022-12-18T12:36:30;1.20;1.00
7784;DHT22;19359;51.402;6.778;2022-12-18T12:39:05;1.20;1.00
7784;DHT22;19359;51.402;6.778;2022-12-18T12:41:34;1.20;1.00
7784;DHT22;19359;51.402;6.778;2022-12-18T12:44:23;1.20;1.00
7784;DHT22;19359;51.402;6.778;2022-12-18T12:46:52;1.20;1.00
7784;DHT22;19359;51.402;6.778;2022-12-18T12:49:25;1.20;1.00
7784;DHT22;19359;51.402;6.778;2022-12-18T12:51:58;1.20;1.00
7784;DHT22;19359;51.402;6.778;2022-12-18T12:54:27;1.30;1.00
7784;DHT22;19359;51.402;6.778;2022-12-18T12:56:58;1.20;1.00
7784;DHT22;19359;51.402;6.778;2022-12-18T12:59:35;1.10;1.00
7784;DHT22;19359;51.402;6.778;2022-12-18T13:02:15;1.10;1.00
7784;DHT22;19359;51.402;6.778;2022-12-18T13:04:49;1.10;1.00
7784;DHT22;19359;51.402;6.778;2022-12-18T13:07:23;1.00;1.00
7784;DHT22;19359;51.402;6.778;2022-12-18T13:10:20;1.10;1.00
7784;DHT22;19359;51.402;6.778;2022-12-18T13:12:55;1.10;1.00
7784;DHT22;19359;51.402;6.778;2022-12-18T13:15:25;1.00;1.00
7784;DHT22;19359;51.402;6.778;2022-12-18T13:18:06;1.60;1.00
7784;DHT22;19359;51.402;6.778;2022-12-18T13:20:38;1.00;1.00
7784;DHT22;19359;51.402;6.778;2022-12-18T13:23:25;1.00;1.00
7784;DHT22;19359;51.402;6.778;2022-12-18T13:25:53;1.10;1.00
7784;DHT22;19359;51.402;6.778;2022-12-18T13:28:21;1.00;1.00
7784;DHT22;19359;51.402;6.778;2022-12-18T13:30:52;1.00;1.00
7784;DHT22;19359;51.402;6.778;2022-12-18T13:33:50;0.90;1.00
7784;DHT22;19359;51.402;6.778;2022-12-18T13:36:30;1.00;1.00
7784;DHT22;19359;51.402;6.778;2022-12-18T13:39:21;0.90;1.00
7784;DHT22;19359;51.402;6.778;2022-12-18T13:41:50;1.00;1.00
7784;DHT22;19359;51.402;6.778;2022-12-18T13:44:25;0.90;1.00
7784;DHT22;19359;51.402;6.778;2022-12-18T13:46:54;0.80;1.00
7784;DHT22;19359;51.402;6.778;2022-12-18T13:49:24;0.90;1.00
7784;DHT22;19359;51.402;6.778;2022-12-18T13:51:53;0.90;1.00
7784;DHT22;19359;51.402;6.778;2022-12-18T13:54:25;0.80;1.00
7784;DHT22;19359;51.402;6.778;2022-12-18T13:56:54;0.90;1.00
7784;DHT22;19359;51.402;6.778;2022-12-18T13:59:23;1.00;1.00
7784;DHT22;19359;51.402;6.778;2022-12-18T14:01:52;0.90;1.00
7784;DHT22;19359;51.402;6.778;2022-12-18T14:04:24;0.90;1.00
7784;DHT22;19359;51.402;6.778;2022-12-18T14:06:55;0.90;1.00
7784;DHT22;19359;51.402;6.778;2022-12-18T14:09:25;0.90;1.00
7784;DHT22;19359;51.402;6.778;2022-12-18T14:11:53;1.40;1.00
7784;DHT22;19359;51.402;6.778;2022-12-18T14:14:44;0.90;1.00
7784;DHT22;19359;51.402;6.778;2022-12-18T14:17:13;0.90;1.00
7784;DHT22;19359;51.402;6.778;2022-12-18T14:19:47;0.80;1.00
7784;DHT22;19359;51.402;6.778;2022-12-18T14:22:17;0.80;1.00
7784;DHT22;19359;51.402;6.778;2022-12-18T14:24:44;0.80;1.00
7784;DHT22;19359;51.402;6.778;2022-12-18T14:27:22;0.80;1.00
7784;DHT22;19359;51.402;6.778;2022-12-18T14:29:49;0.80;1.00
7784;DHT22;19359;51.402;6.778;2022-12-18T14:32:17;0.70;1.00
7784;DHT22;19359;51.402;6.778;2022-12-18T14:34:47;0.80;1.00
7784;DHT22;19359;51.402;6.778;2022-12-18T14:37:16;0.80;1.00
7784;DHT22;19359;51.402;6.778;2022-12-18T14:39:55;0.60;1.00
7784;DHT22;19359;51.402;6.778;2022-12-18T14:42:23;0.70;1.00
7784;DHT22;19359;51.402;6.778;2022-12-18T14:47:52;0.70;1.00
7784;DHT22;19359;51.402;6.778;2022-12-18T14:50:20;1.50;1.00
7784;DHT22;19359;51.402;6.778;2022-12-18T14:52:47;0.70;1.00
7784;DHT22;19359;51.402;6.778;2022-12-18T14:55:15;0.70;1.00
7784;DHT22;19359;51.402;6.778;2022-12-18T14:57:42;1.40;1.00
7784;DHT22;19359;51.402;6.778;2022-12-18T15:00:16;0.70;1.00
7784;DHT22;19359;51.402;6.778;2022-12-18T15:02:44;0.70;1.00
7784;DHT22;19359;51.402;6.778;2022-12-18T15:05:17;0.60;1.00
7784;DHT22;19359;51.402;6.778;2022-12-18T15:07:47;0.60;1.00
7784;DHT22;19359;51.402;6.778;2022-12-18T15:10:16;0.60;1.00
7784;DHT22;19359;51.402;6.778;2022-12-18T15:12:44;0.60;1.00
7784;DHT22;19359;51.402;6.778;2022-12-18T15:15:47;0.50;1.00
7784;DHT22;19359;51.402;6.778;2022-12-18T15:18:15;0.60;1.00
7784;DHT22;19359;51.402;6.778;2022-12-18T15:20:44;0.50;1.00
7784;DHT22;19359;51.402;6.778;2022-12-18T15:23:17;0.50;1.00
7784;DHT22;19359;51.402;6.778;2022-12-18T15:25:46;0.50;1.00
7784;DHT22;19359;51.402;6.778;2022-12-18T15:28:21;0.50;1.00
7784;DHT22;19359;51.402;6.778;2022-12-18T15:31:04;0.50;1.00
7784;DHT22;19359;51.402;6.778;2022-12-18T15:33:33;0.50;1.00
7784;DHT22;19359;51.402;6.778;2022-12-18T15:36:02;0.60;1.00
7784;DHT22;19359;51.402;6.778;2022-12-18T15:38:31;0.40;1.00
7784;DHT22;19359;51.402;6.778;2022-12-18T15:40:58;0.60;1.00
7784;DHT22;19359;51.402;6.778;2022-12-18T15:43:25;1.10;1.00
7784;DHT22;19359;51.402;6.778;2022-12-18T15:46:02;0.50;1.00
7784;DHT22;19359;51.402;6.778;2022-12-18T15:48:29;0.60;1.00
7784;DHT22;19359;51.402;6.778;2022-12-18T15:50:56;0.50;1.00
7784;DHT22;19359;51.402;6.778;2022-12-18T15:53:25;0.40;1.00
7784;DHT22;19359;51.402;6.778;2022-12-18T15:55:55;0.50;1.00
7784;DHT22;19359;51.402;6.778;2022-12-18T15:58:39;0.40;1.00
7784;DHT22;19359;51.402;6.778;2022-12-18T16:01:08;0.40;1.00
7784;DHT22;19359;51.402;6.778;2022-12-18T16:06:02;0.30;1.00
7784;DHT22;19359;51.402;6.778;2022-12-18T16:08:29;0.30;1.00
7784;DHT22;19359;51.402;6.778;2022-12-18T16:10:58;0.30;1.00
7784;DHT22;19359;51.402;6.778;2022-12-18T16:13:25;0.30;1.00
7784;DHT22;19359;51.402;6.778;2022-12-18T16:15:52;0.20;1.00
7784;DHT22;19359;51.402;6.778;2022-12-18T16:18:18;0.30;1.00
7784;DHT22;19359;51.402;6.778;2022-12-18T16:20:45;2.00;1.00
7784;DHT22;19359;51.402;6.778;2022-12-18T16:23:12;0.30;1.00
7784;DHT22;19359;51.402;6.778;2022-12-18T16:25:39;0.30;1.00
7784;DHT22;19359;51.402;6.778;2022-12-18T16:28:07;0.30;1.00
7784;DHT22;19359;51.402;6.778;2022-12-18T16:30:34;1.00;1.00
7784;DHT22;19359;51.402;6.778;2022-12-18T16:33:00;0.30;1.00